createdAt,value
2017-09-13T00:01:06.927Z,10.00
2017-09-13T00:03:34.758Z,9.90
2017-09-13T00:06:02.287Z,9.90
2017-09-13T00:08:30.795Z,9.90
2017-09-13T00:10:58.531Z,9.90
2017-09-13T00:13:26.102Z,9.90
2017-09-13T00:15:53.641Z,9.80
2017-09-13T00:18:21.238Z,10.00
2017-09-13T00:20:48.750Z,9.90
2017-09-13T00:43:05.912Z,9.60
2017-09-13T00:51:21.030Z,9.60
2017-09-13T00:53:48.645Z,9.70
2017-09-13T00:56:23.409Z,9.20
2017-09-13T00:58:50.974Z,9.40
2017-09-13T01:01:18.589Z,9.30
2017-09-13T01:03:46.262Z,9.20
2017-09-13T01:06:13.929Z,9.20
2017-09-13T01:08:41.506Z,9.20
2017-09-13T01:11:12.447Z,9.30
2017-09-13T01:13:41.061Z,9.30
2017-09-13T01:16:08.644Z,9.20
2017-09-13T01:18:55.028Z,9.20
2017-09-13T01:27:28.273Z,9.10
2017-09-13T01:30:16.119Z,9.10
2017-09-13T01:33:02.689Z,9.00
2017-09-13T01:35:31.129Z,8.80
2017-09-13T01:47:07.429Z,8.60
2017-09-13T01:49:52.860Z,8.60
2017-09-13T01:52:21.153Z,8.50
2017-09-13T01:54:55.359Z,8.50
2017-09-13T01:57:24.276Z,8.50
2017-09-13T01:59:52.021Z,8.40
2017-09-13T02:02:19.763Z,8.40
2017-09-13T02:04:47.515Z,8.50
2017-09-13T02:07:16.050Z,8.50
2017-09-13T02:12:36.570Z,8.50
2017-09-13T02:15:05.446Z,8.60
2017-09-13T02:17:33.965Z,8.60
2017-09-13T02:26:22.531Z,8.50
2017-09-13T02:28:53.749Z,8.40
2017-09-13T02:31:21.419Z,8.40
2017-09-13T02:33:49.569Z,8.20
2017-09-13T02:36:17.233Z,8.30
2017-09-13T02:38:44.912Z,8.40
2017-09-13T02:41:12.833Z,8.40
2017-09-13T02:43:40.455Z,8.30
2017-09-13T02:46:08.053Z,8.30
2017-09-13T02:48:35.760Z,8.20
2017-09-13T02:51:03.544Z,8.10
2017-09-13T02:53:31.186Z,8.10
2017-09-13T02:55:59.009Z,8.10
2017-09-13T02:58:26.750Z,8.10
2017-09-13T03:00:55.242Z,8.10
2017-09-13T03:03:23.055Z,8.10
2017-09-13T03:05:50.734Z,8.10
2017-09-13T03:08:19.253Z,8.10
2017-09-13T03:10:50.543Z,8.10
2017-09-13T03:13:19.012Z,8.30
2017-09-13T03:15:47.522Z,8.20
2017-09-13T03:18:16.075Z,8.20
2017-09-13T03:20:53.057Z,8.20
2017-09-13T03:26:22.825Z,8.30
2017-09-13T03:28:53.653Z,8.20
2017-09-13T03:31:52.896Z,8.20
2017-09-13T03:34:21.409Z,8.20
2017-09-13T03:36:49.148Z,8.20
2017-09-13T03:39:16.797Z,8.10
2017-09-13T03:41:44.991Z,8.10
2017-09-13T03:44:12.589Z,8.20
2017-09-13T03:46:40.208Z,8.20
2017-09-13T03:49:08.177Z,8.10
2017-09-13T03:51:58.307Z,8.20
2017-09-13T03:54:28.133Z,8.20
2017-09-13T03:57:22.221Z,8.30
2017-09-13T03:59:49.941Z,8.30
2017-09-13T04:02:17.541Z,8.20
2017-09-13T04:04:45.340Z,8.10
2017-09-13T04:07:13.485Z,8.00
2017-09-13T04:09:42.012Z,8.20
2017-09-13T04:12:09.912Z,8.20
2017-09-13T04:14:38.457Z,8.10
2017-09-13T04:17:06.073Z,8.10
2017-09-13T04:19:33.863Z,8.10
2017-09-13T04:22:01.791Z,8.10
2017-09-13T04:24:50.546Z,8.00
2017-09-13T04:27:18.223Z,8.30
2017-09-13T04:29:45.883Z,8.50
2017-09-13T04:32:13.484Z,8.50
2017-09-13T04:34:41.636Z,8.60
2017-09-13T04:37:09.460Z,8.50
2017-09-13T04:39:37.246Z,8.70
2017-09-13T04:42:04.938Z,8.50
2017-09-13T04:44:42.780Z,8.60
2017-09-13T04:47:10.876Z,8.60
2017-09-13T04:55:14.910Z,8.50
2017-09-13T04:57:42.917Z,8.50
2017-09-13T05:00:10.690Z,8.50
2017-09-13T05:02:38.348Z,8.60
2017-09-13T05:05:20.342Z,8.80
2017-09-13T05:07:48.868Z,9.10
2017-09-13T05:10:16.839Z,9.40
2017-09-13T05:12:44.885Z,9.70
2017-09-13T05:15:13.259Z,10.10
2017-09-13T05:17:44.221Z,10.10
2017-09-13T05:20:12.093Z,10.40
2017-09-13T05:22:39.936Z,10.50
2017-09-13T05:25:07.964Z,10.60
2017-09-13T05:30:53.246Z,10.80
2017-09-13T05:33:21.119Z,10.80
2017-09-13T05:35:55.398Z,11.00
2017-09-13T05:38:23.570Z,10.80
2017-09-13T05:40:53.962Z,11.20
2017-09-13T05:43:22.120Z,11.50
2017-09-13T05:45:49.726Z,11.60
2017-09-13T05:48:17.509Z,11.80
2017-09-13T05:50:45.205Z,12.00
2017-09-13T05:53:24.145Z,12.50
2017-09-13T05:55:52.122Z,12.50
2017-09-13T05:58:19.905Z,12.90
2017-09-13T06:00:47.574Z,13.10
2017-09-13T06:03:56.573Z,13.30
2017-09-13T06:06:30.417Z,13.50
2017-09-13T06:09:21.562Z,13.80
2017-09-13T06:11:49.273Z,13.90
2017-09-13T06:14:17.591Z,14.00
2017-09-13T06:16:46.120Z,14.30
2017-09-13T06:19:13.883Z,14.30
2017-09-13T06:21:41.909Z,14.40
2017-09-13T06:24:09.557Z,14.50
2017-09-13T06:26:39.854Z,14.80
2017-09-13T06:29:07.880Z,14.80
2017-09-13T06:31:35.527Z,15.00
2017-09-13T06:34:03.258Z,15.10
2017-09-13T06:36:31.071Z,15.20
2017-09-13T06:38:58.924Z,15.20
2017-09-13T06:41:26.549Z,15.30
2017-09-13T06:43:56.298Z,15.30
2017-09-13T06:46:24.152Z,15.30
2017-09-13T06:48:53.669Z,15.20
2017-09-13T06:51:22.548Z,15.30
2017-09-13T06:53:51.191Z,15.50
2017-09-13T06:56:20.774Z,15.50
2017-09-13T06:58:48.490Z,15.60
2017-09-13T07:01:17.933Z,15.60
2017-09-13T07:03:46.929Z,15.80
2017-09-13T07:06:14.672Z,15.80
2017-09-13T07:08:42.462Z,15.70
2017-09-13T07:11:12.603Z,15.70
2017-09-13T07:13:40.374Z,15.70
2017-09-13T07:16:12.242Z,15.60
2017-09-13T07:18:41.259Z,15.60
2017-09-13T07:21:09.938Z,15.60
2017-09-13T07:23:37.609Z,15.60
2017-09-13T07:26:05.596Z,15.60
2017-09-13T07:28:45.601Z,15.60
2017-09-13T07:31:13.346Z,15.60
2017-09-13T07:33:40.909Z,15.80
2017-09-13T07:36:09.532Z,15.80
2017-09-13T07:38:37.389Z,15.80
2017-09-13T07:41:05.150Z,16.00
2017-09-13T07:43:33.065Z,16.10
2017-09-13T07:46:00.811Z,16.10
2017-09-13T07:48:29.403Z,16.00
2017-09-13T07:50:57.104Z,16.00
2017-09-13T07:53:24.877Z,16.00
2017-09-13T07:55:52.538Z,16.00
2017-09-13T07:58:20.123Z,16.00
2017-09-13T08:00:48.121Z,16.10
2017-09-13T08:03:15.959Z,16.30
2017-09-13T08:05:43.756Z,16.40
2017-09-13T08:08:11.425Z,16.60
2017-09-13T08:10:39.153Z,16.80
2017-09-13T08:13:07.088Z,17.00
2017-09-13T08:18:22.802Z,17.60
2017-09-13T08:20:50.647Z,17.60
2017-09-13T08:23:18.437Z,17.70
2017-09-13T08:25:46.115Z,17.90
2017-09-13T08:28:13.878Z,18.10
2017-09-13T08:30:41.662Z,18.10
2017-09-13T08:33:08.921Z,18.10
2017-09-13T08:35:36.690Z,18.30
2017-09-13T08:38:04.346Z,18.50
2017-09-13T08:40:32.298Z,18.70
2017-09-13T08:43:00.086Z,18.60
2017-09-13T08:45:27.768Z,18.70
2017-09-13T08:48:02.616Z,18.90
2017-09-13T08:50:32.165Z,18.80
2017-09-13T08:53:02.422Z,18.90
2017-09-13T08:55:30.088Z,19.00
2017-09-13T08:57:57.735Z,18.90
2017-09-13T09:00:25.490Z,19.10
2017-09-13T09:02:53.141Z,18.90
2017-09-13T09:05:21.099Z,18.90
2017-09-13T09:07:49.026Z,18.90
2017-09-13T09:10:16.789Z,18.90
2017-09-13T09:12:44.452Z,18.90
2017-09-13T09:15:15.540Z,19.00
2017-09-13T09:20:48.117Z,18.70
2017-09-13T09:23:15.869Z,19.00
2017-09-13T09:25:46.730Z,18.70
2017-09-13T09:28:14.894Z,18.80
2017-09-13T09:30:42.521Z,18.80
2017-09-13T09:33:10.256Z,18.70
2017-09-13T09:35:39.092Z,18.70
2017-09-13T09:38:08.958Z,18.70
2017-09-13T09:40:36.685Z,18.40
2017-09-13T09:46:07.940Z,18.60
2017-09-13T09:48:36.089Z,18.80
2017-09-13T09:51:04.435Z,18.60
2017-09-13T09:53:31.996Z,18.70
2017-09-13T09:56:00.306Z,18.90
2017-09-13T09:58:27.847Z,18.90
2017-09-13T10:01:12.171Z,19.00
2017-09-13T10:12:30.073Z,19.40
2017-09-13T10:24:25.368Z,19.40
2017-09-13T10:29:58.573Z,20.00
2017-09-13T10:32:26.255Z,20.50
2017-09-13T10:35:06.140Z,20.70
2017-09-13T10:37:36.004Z,21.00
2017-09-13T10:40:04.316Z,21.30
2017-09-13T10:42:31.911Z,21.30
2017-09-13T10:44:59.908Z,21.90
2017-09-13T10:50:20.817Z,20.80
2017-09-13T10:52:48.659Z,20.40
2017-09-13T10:55:16.416Z,20.30
2017-09-13T10:57:44.128Z,20.20
2017-09-13T11:00:12.826Z,20.20
2017-09-13T11:02:40.509Z,20.20
2017-09-13T11:05:08.128Z,20.40
2017-09-13T11:07:36.031Z,20.40
2017-09-13T11:10:03.506Z,20.40
2017-09-13T11:12:31.149Z,20.40
2017-09-13T11:14:58.895Z,20.50
2017-09-13T11:17:26.774Z,20.90
2017-09-13T11:19:54.473Z,20.80
2017-09-13T11:22:22.488Z,21.00
2017-09-13T11:24:50.137Z,20.90
2017-09-13T11:27:18.110Z,21.00
2017-09-13T11:29:45.897Z,22.30
2017-09-13T11:32:13.761Z,21.60
2017-09-13T11:34:42.176Z,21.50
2017-09-13T11:37:09.931Z,21.50
2017-09-13T11:39:38.268Z,21.40
2017-09-13T11:42:05.928Z,21.40
2017-09-13T11:44:33.680Z,21.30
2017-09-13T11:47:01.292Z,21.40
2017-09-13T11:49:28.921Z,21.40
2017-09-13T11:51:56.772Z,20.90
2017-09-13T11:54:24.520Z,20.70
2017-09-13T11:56:52.335Z,20.40
2017-09-13T11:59:20.204Z,20.40
2017-09-13T12:01:47.999Z,20.20
2017-09-13T12:04:15.636Z,20.10
2017-09-13T12:06:43.394Z,20.00
2017-09-13T12:09:11.094Z,19.90
2017-09-13T12:11:38.901Z,19.70
2017-09-13T12:14:06.920Z,19.60
2017-09-13T12:16:35.449Z,19.50
2017-09-13T12:19:03.205Z,19.50
2017-09-13T12:21:31.977Z,19.60
2017-09-13T12:23:59.657Z,19.50
2017-09-13T12:26:27.289Z,19.50
2017-09-13T12:28:55.434Z,19.40
2017-09-13T12:31:23.155Z,19.60
2017-09-13T12:33:50.878Z,19.60
2017-09-13T12:36:18.577Z,19.40
2017-09-13T12:38:46.148Z,19.50
2017-09-13T12:41:14.615Z,19.80
2017-09-13T12:43:43.101Z,19.70
2017-09-13T12:46:10.782Z,19.70
2017-09-13T12:48:39.183Z,19.30
2017-09-13T12:51:07.393Z,19.30
2017-09-13T12:53:35.120Z,19.40
2017-09-13T12:56:02.769Z,19.40
2017-09-13T12:58:30.471Z,19.50
2017-09-13T13:00:58.166Z,19.60
2017-09-13T13:03:25.832Z,19.50
2017-09-13T13:05:54.328Z,19.40
2017-09-13T13:08:22.012Z,19.50
2017-09-13T13:10:50.501Z,19.70
2017-09-13T13:13:18.305Z,19.70
2017-09-13T13:15:45.999Z,20.10
2017-09-13T13:18:13.585Z,20.50
2017-09-13T13:20:41.731Z,20.80
2017-09-13T13:23:09.542Z,20.60
2017-09-13T13:25:41.808Z,20.50
2017-09-13T13:28:09.352Z,20.60
2017-09-13T13:30:36.873Z,20.50
2017-09-13T13:33:04.448Z,20.60
2017-09-13T13:35:31.958Z,20.50
2017-09-13T13:38:00.244Z,20.60
2017-09-13T13:40:27.835Z,20.60
2017-09-13T13:42:55.371Z,20.60
2017-09-13T13:45:23.835Z,20.40
2017-09-13T13:47:52.291Z,20.50
2017-09-13T13:50:19.858Z,20.50
2017-09-13T13:52:47.395Z,20.50
2017-09-13T13:55:15.243Z,20.40
2017-09-13T13:57:42.778Z,20.40
2017-09-13T14:00:10.342Z,20.40
2017-09-13T14:08:36.253Z,19.90
2017-09-13T14:11:04.846Z,20.00
2017-09-13T14:13:32.408Z,20.00
2017-09-13T14:24:38.347Z,20.10
2017-09-13T14:27:06.296Z,20.20
2017-09-13T14:29:52.986Z,20.10
2017-09-13T14:38:16.509Z,20.00
2017-09-13T14:49:23.838Z,20.00
2017-09-13T14:51:51.491Z,19.80
2017-09-13T14:54:19.208Z,20.20
2017-09-13T14:56:47.650Z,20.30
2017-09-13T14:59:15.454Z,20.30
2017-09-13T15:01:43.090Z,20.30
2017-09-13T15:04:10.750Z,20.40
2017-09-13T15:06:38.986Z,20.50
2017-09-13T15:09:07.382Z,20.50
2017-09-13T15:11:35.186Z,20.50
2017-09-13T15:14:03.999Z,20.40
2017-09-13T15:16:31.884Z,20.40
2017-09-13T15:18:59.629Z,20.20
2017-09-13T15:21:27.248Z,20.20
2017-09-13T15:23:54.851Z,19.90
2017-09-13T15:26:22.504Z,19.90
2017-09-13T15:28:50.135Z,19.70
2017-09-13T15:31:17.718Z,19.50
2017-09-13T15:33:54.253Z,19.10
2017-09-13T15:36:26.648Z,19.10
2017-09-13T15:38:54.353Z,19.00
2017-09-13T15:44:24.348Z,18.80
2017-09-13T15:46:52.823Z,19.00
2017-09-13T15:49:20.363Z,19.00
2017-09-13T15:51:47.932Z,18.90
2017-09-13T15:54:15.457Z,18.80
2017-09-13T15:56:43.004Z,18.80
2017-09-13T15:59:10.632Z,18.80
2017-09-13T16:01:38.247Z,18.80
2017-09-13T16:04:06.596Z,18.70
2017-09-13T16:06:34.932Z,18.80
2017-09-13T16:09:02.491Z,18.70
2017-09-13T16:28:16.820Z,18.90
2017-09-13T16:30:44.352Z,18.90
2017-09-13T16:33:12.721Z,18.90
2017-09-13T16:35:41.117Z,18.90
2017-09-13T16:38:13.707Z,18.90
2017-09-13T16:40:41.673Z,19.00
2017-09-13T16:43:09.229Z,19.00
2017-09-13T16:45:36.766Z,19.00
2017-09-13T16:48:04.672Z,19.00
2017-09-13T16:50:32.297Z,19.10
2017-09-13T16:53:02.961Z,19.20
2017-09-13T16:55:30.674Z,19.20
2017-09-13T17:03:43.994Z,19.00
2017-09-13T17:06:12.847Z,19.00
2017-09-13T17:08:40.671Z,19.00
2017-09-13T17:11:08.560Z,19.10
2017-09-13T17:13:36.491Z,19.10
2017-09-13T17:16:04.774Z,19.00
2017-09-13T17:18:33.075Z,18.90
2017-09-13T17:21:01.410Z,18.80
2017-09-13T17:23:28.911Z,18.80
2017-09-13T17:25:56.436Z,18.60
2017-09-13T17:28:24.100Z,18.30
2017-09-13T17:30:51.607Z,18.20
2017-09-13T17:33:19.320Z,18.10
2017-09-13T17:35:47.579Z,18.10
2017-09-13T17:38:15.103Z,18.00
2017-09-13T17:40:42.631Z,17.90
2017-09-13T17:43:10.185Z,17.80
2017-09-13T17:45:37.735Z,17.70
2017-09-13T17:48:05.679Z,17.50
2017-09-13T17:50:33.666Z,17.50
2017-09-13T17:53:01.220Z,17.50
2017-09-13T17:55:28.727Z,17.40
2017-09-13T17:57:56.284Z,17.40
2017-09-13T18:00:23.780Z,17.30
2017-09-13T18:02:51.323Z,17.20
2017-09-13T18:05:18.900Z,17.30
2017-09-13T18:07:46.407Z,17.20
2017-09-13T18:10:13.947Z,17.20
2017-09-13T18:12:41.859Z,17.20
2017-09-13T18:15:09.363Z,17.20
2017-09-13T18:17:37.615Z,17.10
2017-09-13T18:20:05.572Z,17.10
2017-09-13T18:22:33.062Z,17.10
2017-09-13T18:25:01.323Z,17.20
2017-09-13T18:27:29.990Z,17.20
2017-09-13T18:29:58.267Z,17.20
2017-09-13T18:32:26.463Z,17.20
2017-09-13T18:34:54.393Z,17.10
2017-09-13T18:37:22.216Z,17.30
2017-09-13T18:39:49.767Z,17.40
2017-09-13T18:42:18.413Z,17.50
2017-09-13T18:44:45.931Z,17.50
2017-09-13T18:47:13.427Z,17.50
2017-09-13T18:49:41.320Z,17.50
2017-09-13T18:52:08.823Z,17.60
2017-09-13T18:54:36.391Z,17.60
2017-09-13T18:57:04.252Z,17.60
2017-09-13T18:59:31.754Z,17.50
2017-09-13T19:01:59.251Z,17.50
2017-09-13T19:04:27.599Z,17.30
2017-09-13T19:06:55.922Z,17.50
2017-09-13T19:09:23.418Z,17.50
2017-09-13T19:11:50.965Z,17.60
2017-09-13T19:14:19.004Z,17.60
2017-09-13T19:16:46.540Z,17.70
2017-09-13T19:19:15.132Z,17.60
2017-09-13T19:21:42.991Z,17.50
2017-09-13T19:24:10.563Z,17.40
2017-09-13T19:26:38.111Z,17.20
2017-09-13T19:29:05.619Z,17.10
2017-09-13T19:31:33.682Z,17.00
2017-09-13T19:34:01.573Z,17.00
2017-09-13T19:36:29.368Z,17.10
2017-09-13T19:38:56.969Z,17.00
2017-09-13T19:41:25.140Z,17.00
2017-09-13T19:43:52.679Z,17.00
2017-09-13T19:46:20.225Z,17.10
2017-09-13T19:48:48.402Z,17.10
2017-09-13T19:51:16.741Z,17.30
2017-09-13T19:53:44.247Z,17.30
2017-09-13T19:56:12.157Z,17.40
2017-09-13T19:58:39.747Z,17.50
2017-09-13T20:01:07.449Z,17.60
2017-09-13T20:03:35.098Z,17.70
2017-09-13T20:06:03.287Z,17.80
2017-09-13T20:08:30.877Z,18.10
2017-09-13T20:10:58.759Z,18.10
2017-09-13T20:13:26.302Z,18.20
2017-09-13T20:15:53.822Z,18.20
2017-09-13T20:18:21.383Z,18.30
2017-09-13T20:20:48.879Z,18.30
2017-09-13T20:23:16.775Z,18.40
2017-09-13T20:25:44.388Z,18.50
2017-09-13T20:28:11.912Z,18.50
2017-09-13T20:30:39.863Z,18.50
2017-09-13T20:33:07.439Z,18.50
2017-09-13T20:35:35.015Z,18.70
2017-09-13T20:38:03.595Z,18.70
2017-09-13T20:40:31.156Z,18.70
2017-09-13T20:42:58.674Z,18.70
2017-09-13T20:45:26.444Z,18.60
2017-09-13T20:47:53.959Z,18.70
2017-09-13T20:50:21.463Z,18.80
2017-09-13T20:52:49.652Z,18.70
2017-09-13T20:55:17.151Z,18.80
2017-09-13T20:57:44.953Z,18.80
2017-09-13T21:00:12.632Z,18.80
2017-09-13T21:02:40.784Z,18.80
2017-09-13T21:05:08.415Z,18.80
2017-09-13T21:07:35.921Z,18.80
2017-09-13T21:10:03.606Z,18.90
2017-09-13T21:12:31.143Z,18.90
2017-09-13T21:14:58.882Z,18.90
2017-09-13T21:17:26.699Z,19.00
2017-09-13T21:19:55.055Z,19.10
2017-09-13T21:22:22.550Z,19.10
2017-09-13T21:24:50.444Z,19.30
2017-09-13T21:27:17.943Z,19.50
2017-09-13T21:29:45.476Z,19.80
2017-09-13T21:32:13.070Z,19.90
2017-09-13T21:34:41.479Z,20.20
2017-09-13T21:37:09.298Z,20.20
2017-09-13T21:39:37.098Z,20.20
2017-09-13T21:42:05.459Z,20.60
2017-09-13T21:44:33.019Z,20.40
2017-09-13T21:47:00.852Z,20.40
2017-09-13T21:49:28.436Z,20.50
2017-09-13T21:51:56.091Z,20.50
2017-09-13T21:54:23.663Z,20.60
2017-09-13T21:56:51.163Z,20.60
2017-09-13T21:59:18.922Z,20.60
2017-09-13T22:01:46.605Z,20.50
2017-09-13T22:04:14.152Z,20.40
2017-09-13T22:06:41.675Z,20.30
2017-09-13T22:09:09.484Z,20.10
2017-09-13T22:11:37.029Z,20.00
2017-09-13T22:14:04.623Z,20.20
2017-09-13T22:16:32.260Z,20.30
2017-09-13T22:18:59.799Z,20.40
2017-09-13T22:21:27.337Z,20.50
2017-09-13T22:23:56.009Z,20.60
2017-09-13T22:26:23.507Z,20.60
2017-09-13T22:28:50.998Z,20.60
2017-09-13T22:31:18.715Z,20.70
2017-09-13T22:33:46.251Z,20.70
2017-09-13T22:36:13.743Z,20.60
2017-09-13T22:38:41.312Z,20.60
2017-09-13T22:41:08.818Z,20.60
2017-09-13T22:43:36.595Z,20.60
2017-09-13T22:46:04.611Z,20.70
2017-09-13T22:48:32.143Z,20.70
2017-09-13T22:50:59.711Z,20.70
2017-09-13T22:53:28.052Z,20.70
2017-09-13T22:55:55.573Z,20.60
2017-09-13T22:58:23.109Z,20.70
2017-09-13T23:00:51.427Z,20.70
2017-09-13T23:03:18.954Z,20.70
2017-09-13T23:05:46.510Z,20.70
2017-09-13T23:08:14.299Z,20.70
2017-09-13T23:10:41.799Z,20.80
2017-09-13T23:13:09.323Z,20.80
2017-09-13T23:15:36.843Z,20.80
2017-09-13T23:18:04.374Z,20.80
2017-09-13T23:20:31.931Z,20.70
2017-09-13T23:23:00.019Z,20.60
2017-09-13T23:25:27.521Z,20.60
2017-09-13T23:27:55.238Z,20.60
2017-09-13T23:30:23.544Z,20.70
2017-09-13T23:32:51.042Z,20.70
2017-09-13T23:35:18.967Z,20.80
2017-09-13T23:37:46.562Z,20.80
2017-09-13T23:40:14.067Z,20.70
2017-09-13T23:42:41.640Z,20.60
2017-09-13T23:45:09.327Z,20.60
2017-09-13T23:47:36.839Z,20.50
2017-09-13T23:50:04.427Z,20.50
2017-09-13T23:52:31.923Z,20.50
2017-09-13T23:54:59.566Z,20.50
2017-09-13T23:57:27.138Z,20.40
2017-09-13T23:59:54.672Z,20.40
